sensor_id;sensor_type;location;lat;lon;timestamp;temperature;humidity
70762;DHT22;58360;0.000;0.000;2022-12-10T00:01:07;1.30;85.40
70762;DHT22;58360;0.000;0.000;2022-12-10T00:03:33;1.40;85.70
70762;DHT22;58360;0.000;0.000;2022-12-10T00:06:05;1.50;84.80
70762;DHT22;58360;0.000;0.000;2022-12-10T00:08:31;1.40;84.70
70762;DHT22;58360;0.000;0.000;2022-12-10T00:10:56;1.30;84.60
70762;DHT22;58360;0.000;0.000;2022-12-10T00:13:22;1.40;85.00
70762;DHT22;58360;0.000;0.000;2022-12-10T00:15:48;1.40;85.30
70762;DHT22;58360;0.000;0.000;2022-12-10T00:18:14;1.40;84.50
70762;DHT22;58360;0.000;0.000;2022-12-10T00:20:40;1.30;85.20
70762;DHT22;58360;0.000;0.000;2022-12-10T00:23:06;1.30;84.70
70762;DHT22;58360;0.000;0.000;2022-12-10T00:25:32;1.40;84.50
70762;DHT22;58360;0.000;0.000;2022-12-10T00:27:58;1.30;84.70
70762;DHT22;58360;0.000;0.000;2022-12-10T00:30:24;1.10;85.70
70762;DHT22;58360;0.000;0.000;2022-12-10T00:32:49;1.10;85.60
70762;DHT22;58360;0.000;0.000;2022-12-10T00:35:15;1.40;84.60
70762;DHT22;58360;0.000;0.000;2022-12-10T00:37:41;1.10;85.80
70762;DHT22;58360;0.000;0.000;2022-12-10T00:40:07;1.00;86.60
70762;DHT22;58360;0.000;0.000;2022-12-10T00:42:33;0.90;87.50
70762;DHT22;58360;0.000;0.000;2022-12-10T00:44:59;0.80;88.40
70762;DHT22;58360;0.000;0.000;2022-12-10T00:47:24;0.80;87.90
70762;DHT22;58360;0.000;0.000;2022-12-10T00:49:50;0.80;87.90
70762;DHT22;58360;0.000;0.000;2022-12-10T00:52:16;0.80;88.20
70762;DHT22;58360;0.000;0.000;2022-12-10T00:54:41;0.80;87.90
70762;DHT22;58360;0.000;0.000;2022-12-10T00:57:07;0.70;88.30
70762;DHT22;58360;0.000;0.000;2022-12-10T00:59:32;0.80;88.50
70762;DHT22;58360;0.000;0.000;2022-12-10T01:01:59;0.80;88.40
70762;DHT22;58360;0.000;0.000;2022-12-10T01:04:25;0.90;87.90
70762;DHT22;58360;0.000;0.000;2022-12-10T01:06:52;1.00;87.50
70762;DHT22;58360;0.000;0.000;2022-12-10T01:09:24;0.90;87.50
70762;DHT22;58360;0.000;0.000;2022-12-10T01:11:51;0.90;88.40
70762;DHT22;58360;0.000;0.000;2022-12-10T01:14:31;0.90;88.50
70762;DHT22;58360;0.000;0.000;2022-12-10T01:17:01;0.90;88.30
70762;DHT22;58360;0.000;0.000;2022-12-10T01:19:29;0.90;88.60
70762;DHT22;58360;0.000;0.000;2022-12-10T01:21:56;1.00;88.50
70762;DHT22;58360;0.000;0.000;2022-12-10T01:24:23;1.00;87.90
70762;DHT22;58360;0.000;0.000;2022-12-10T01:26:50;1.00;87.90
70762;DHT22;58360;0.000;0.000;2022-12-10T01:29:16;1.00;87.90
70762;DHT22;58360;0.000;0.000;2022-12-10T01:31:42;1.00;87.70
70762;DHT22;58360;0.000;0.000;2022-12-10T01:34:12;1.00;87.70
70762;DHT22;58360;0.000;0.000;2022-12-10T01:36:40;0.90;88.00
70762;DHT22;58360;0.000;0.000;2022-12-10T01:39:09;0.90;88.80
70762;DHT22;58360;0.000;0.000;2022-12-10T01:41:38;0.90;88.20
70762;DHT22;58360;0.000;0.000;2022-12-10T01:46:40;1.00;87.80
70762;DHT22;58360;0.000;0.000;2022-12-10T01:49:08;1.10;87.80
70762;DHT22;58360;0.000;0.000;2022-12-10T01:51:37;1.00;88.40
70762;DHT22;58360;0.000;0.000;2022-12-10T01:54:07;1.00;88.20
70762;DHT22;58360;0.000;0.000;2022-12-10T01:56:38;1.10;87.80
70762;DHT22;58360;0.000;0.000;2022-12-10T01:59:04;1.20;87.00
70762;DHT22;58360;0.000;0.000;2022-12-10T02:07:42;1.10;88.00
70762;DHT22;58360;0.000;0.000;2022-12-10T02:13:17;1.30;86.80
70762;DHT22;58360;0.000;0.000;2022-12-10T02:15:53;1.40;86.00
70762;DHT22;58360;0.000;0.000;2022-12-10T02:18:55;1.30;87.00
70762;DHT22;58360;0.000;0.000;2022-12-10T02:21:26;1.10;87.80
70762;DHT22;58360;0.000;0.000;2022-12-10T02:24:00;1.10;88.30
70762;DHT22;58360;0.000;0.000;2022-12-10T02:29:17;1.00;88.00
70762;DHT22;58360;0.000;0.000;2022-12-10T02:31:45;1.20;87.80
70762;DHT22;58360;0.000;0.000;2022-12-10T02:34:13;1.10;87.90
70762;DHT22;58360;0.000;0.000;2022-12-10T02:36:43;1.10;88.50
70762;DHT22;58360;0.000;0.000;2022-12-10T02:39:12;1.20;87.50
70762;DHT22;58360;0.000;0.000;2022-12-10T02:41:47;1.40;86.80
70762;DHT22;58360;0.000;0.000;2022-12-10T02:44:17;1.50;86.40
70762;DHT22;58360;0.000;0.000;2022-12-10T02:46:46;1.60;86.00
70762;DHT22;58360;0.000;0.000;2022-12-10T02:49:14;1.60;85.50
70762;DHT22;58360;0.000;0.000;2022-12-10T02:51:41;1.40;85.70
70762;DHT22;58360;0.000;0.000;2022-12-10T02:57:01;1.40;86.70
70762;DHT22;58360;0.000;0.000;2022-12-10T02:59:34;1.40;85.70
70762;DHT22;58360;0.000;0.000;2022-12-10T03:02:09;1.30;86.10
70762;DHT22;58360;0.000;0.000;2022-12-10T03:04:59;1.20;86.90
70762;DHT22;58360;0.000;0.000;2022-12-10T03:07:44;1.20;87.10
70762;DHT22;58360;0.000;0.000;2022-12-10T03:13:09;1.10;87.30
70762;DHT22;58360;0.000;0.000;2022-12-10T03:15:37;1.10;87.50
70762;DHT22;58360;0.000;0.000;2022-12-10T03:18:05;1.20;87.30
70762;DHT22;58360;0.000;0.000;2022-12-10T03:20:34;1.20;87.20
70762;DHT22;58360;0.000;0.000;2022-12-10T03:23:03;1.40;86.20
70762;DHT22;58360;0.000;0.000;2022-12-10T03:25:32;1.20;86.90
70762;DHT22;58360;0.000;0.000;2022-12-10T03:27:59;1.20;87.10
70762;DHT22;58360;0.000;0.000;2022-12-10T03:30:26;1.20;87.20
70762;DHT22;58360;0.000;0.000;2022-12-10T03:32:52;1.00;88.00
70762;DHT22;58360;0.000;0.000;2022-12-10T03:35:20;1.10;87.90
70762;DHT22;58360;0.000;0.000;2022-12-10T03:37:48;1.20;86.80
70762;DHT22;58360;0.000;0.000;2022-12-10T03:40:16;1.20;86.80
70762;DHT22;58360;0.000;0.000;2022-12-10T03:42:43;1.30;86.30
70762;DHT22;58360;0.000;0.000;2022-12-10T03:45:09;1.20;87.10
70762;DHT22;58360;0.000;0.000;2022-12-10T03:47:35;1.10;87.80
70762;DHT22;58360;0.000;0.000;2022-12-10T03:50:01;1.10;87.50
70762;DHT22;58360;0.000;0.000;2022-12-10T03:52:26;1.20;87.70
70762;DHT22;58360;0.000;0.000;2022-12-10T03:54:52;1.20;87.60
70762;DHT22;58360;0.000;0.000;2022-12-10T03:57:18;1.10;87.90
70762;DHT22;58360;0.000;0.000;2022-12-10T03:59:44;1.10;88.30
70762;DHT22;58360;0.000;0.000;2022-12-10T04:02:09;1.20;87.60
70762;DHT22;58360;0.000;0.000;2022-12-10T04:04:36;1.50;86.40
70762;DHT22;58360;0.000;0.000;2022-12-10T04:07:02;1.50;86.10
70762;DHT22;58360;0.000;0.000;2022-12-10T04:09:27;1.30;86.80
70762;DHT22;58360;0.000;0.000;2022-12-10T04:11:57;1.30;87.20
70762;DHT22;58360;0.000;0.000;2022-12-10T04:14:23;1.20;87.50
70762;DHT22;58360;0.000;0.000;2022-12-10T04:17:08;1.20;86.90
70762;DHT22;58360;0.000;0.000;2022-12-10T04:19:33;1.30;86.20
70762;DHT22;58360;0.000;0.000;2022-12-10T04:21:59;1.10;87.10
70762;DHT22;58360;0.000;0.000;2022-12-10T04:24:44;1.00;87.90
70762;DHT22;58360;0.000;0.000;2022-12-10T04:27:29;1.00;87.80
70762;DHT22;58360;0.000;0.000;2022-12-10T04:29:57;0.90;88.00
70762;DHT22;58360;0.000;0.000;2022-12-10T04:32:25;1.20;88.10
70762;DHT22;58360;0.000;0.000;2022-12-10T04:34:51;1.10;88.60
70762;DHT22;58360;0.000;0.000;2022-12-10T04:37:18;1.20;87.80
70762;DHT22;58360;0.000;0.000;2022-12-10T04:39:44;1.00;87.50
70762;DHT22;58360;0.000;0.000;2022-12-10T04:42:10;1.20;86.10
70762;DHT22;58360;0.000;0.000;2022-12-10T04:44:36;1.30;85.80
70762;DHT22;58360;0.000;0.000;2022-12-10T04:47:03;1.10;87.00
70762;DHT22;58360;0.000;0.000;2022-12-10T04:49:29;1.20;86.50
70762;DHT22;58360;0.000;0.000;2022-12-10T04:51:55;1.10;87.20
70762;DHT22;58360;0.000;0.000;2022-12-10T04:54:21;1.20;86.50
70762;DHT22;58360;0.000;0.000;2022-12-10T04:56:47;1.00;87.50
70762;DHT22;58360;0.000;0.000;2022-12-10T04:59:13;0.90;88.20
70762;DHT22;58360;0.000;0.000;2022-12-10T05:01:39;0.70;88.60
70762;DHT22;58360;0.000;0.000;2022-12-10T05:04:07;0.90;88.50
70762;DHT22;58360;0.000;0.000;2022-12-10T05:06:35;0.90;88.00
70762;DHT22;58360;0.000;0.000;2022-12-10T05:09:00;0.90;88.00
70762;DHT22;58360;0.000;0.000;2022-12-10T05:11:28;0.80;88.50
70762;DHT22;58360;0.000;0.000;2022-12-10T05:13:55;0.70;89.00
70762;DHT22;58360;0.000;0.000;2022-12-10T05:16:23;0.90;89.20
70762;DHT22;58360;0.000;0.000;2022-12-10T05:18:50;0.80;88.90
70762;DHT22;58360;0.000;0.000;2022-12-10T05:21:17;0.90;89.30
70762;DHT22;58360;0.000;0.000;2022-12-10T05:23:45;0.80;89.10
70762;DHT22;58360;0.000;0.000;2022-12-10T05:26:16;0.70;89.50
70762;DHT22;58360;0.000;0.000;2022-12-10T05:28:54;0.80;89.20
70762;DHT22;58360;0.000;0.000;2022-12-10T05:31:27;0.80;89.70
70762;DHT22;58360;0.000;0.000;2022-12-10T05:33:54;0.70;89.80
70762;DHT22;58360;0.000;0.000;2022-12-10T05:36:23;0.70;89.70
70762;DHT22;58360;0.000;0.000;2022-12-10T05:38:49;0.90;89.40
70762;DHT22;58360;0.000;0.000;2022-12-10T05:41:18;0.80;89.60
70762;DHT22;58360;0.000;0.000;2022-12-10T05:43:44;1.00;89.80
70762;DHT22;58360;0.000;0.000;2022-12-10T05:46:13;0.90;89.70
70762;DHT22;58360;0.000;0.000;2022-12-10T05:48:40;1.10;88.40
70762;DHT22;58360;0.000;0.000;2022-12-10T05:51:14;1.10;87.70
70762;DHT22;58360;0.000;0.000;2022-12-10T05:53:40;1.20;87.40
70762;DHT22;58360;0.000;0.000;2022-12-10T05:56:11;1.10;87.80
70762;DHT22;58360;0.000;0.000;2022-12-10T05:58:39;1.10;87.70
70762;DHT22;58360;0.000;0.000;2022-12-10T06:01:14;0.90;88.50
70762;DHT22;58360;0.000;0.000;2022-12-10T06:03:41;0.80;89.60
70762;DHT22;58360;0.000;0.000;2022-12-10T06:06:08;0.80;89.90
70762;DHT22;58360;0.000;0.000;2022-12-10T06:08:35;0.70;90.20
70762;DHT22;58360;0.000;0.000;2022-12-10T06:11:05;0.80;90.20
70762;DHT22;58360;0.000;0.000;2022-12-10T06:13:31;0.70;90.10
70762;DHT22;58360;0.000;0.000;2022-12-10T06:15:57;0.70;90.10
70762;DHT22;58360;0.000;0.000;2022-12-10T06:18:23;0.70;90.20
70762;DHT22;58360;0.000;0.000;2022-12-10T06:20:49;0.80;90.20
70762;DHT22;58360;0.000;0.000;2022-12-10T06:23:15;0.90;89.80
70762;DHT22;58360;0.000;0.000;2022-12-10T06:25:40;1.10;88.30
70762;DHT22;58360;0.000;0.000;2022-12-10T06:28:07;1.30;87.50
70762;DHT22;58360;0.000;0.000;2022-12-10T06:30:33;1.30;86.30
70762;DHT22;58360;0.000;0.000;2022-12-10T06:32:59;1.10;87.60
70762;DHT22;58360;0.000;0.000;2022-12-10T06:35:25;0.90;89.00
70762;DHT22;58360;0.000;0.000;2022-12-10T06:37:51;0.70;89.90
70762;DHT22;58360;0.000;0.000;2022-12-10T06:40:17;0.90;89.50
70762;DHT22;58360;0.000;0.000;2022-12-10T06:42:44;0.80;89.20
70762;DHT22;58360;0.000;0.000;2022-12-10T06:45:10;0.90;89.00
70762;DHT22;58360;0.000;0.000;2022-12-10T06:47:36;1.10;88.20
70762;DHT22;58360;0.000;0.000;2022-12-10T06:50:02;1.10;88.10
70762;DHT22;58360;0.000;0.000;2022-12-10T06:52:28;0.90;88.90
70762;DHT22;58360;0.000;0.000;2022-12-10T06:54:54;0.90;89.60
70762;DHT22;58360;0.000;0.000;2022-12-10T06:57:20;1.00;89.20
70762;DHT22;58360;0.000;0.000;2022-12-10T06:59:46;0.90;88.90
70762;DHT22;58360;0.000;0.000;2022-12-10T07:02:12;0.80;89.60
70762;DHT22;58360;0.000;0.000;2022-12-10T07:04:38;0.80;90.00
70762;DHT22;58360;0.000;0.000;2022-12-10T07:07:05;0.60;90.40
70762;DHT22;58360;0.000;0.000;2022-12-10T07:09:30;0.50;90.50
70762;DHT22;58360;0.000;0.000;2022-12-10T07:11:57;0.70;90.40
70762;DHT22;58360;0.000;0.000;2022-12-10T07:14:23;0.90;89.10
70762;DHT22;58360;0.000;0.000;2022-12-10T07:16:48;0.80;89.60
70762;DHT22;58360;0.000;0.000;2022-12-10T07:19:14;0.90;89.70
70762;DHT22;58360;0.000;0.000;2022-12-10T07:21:41;0.80;89.80
70762;DHT22;58360;0.000;0.000;2022-12-10T07:24:10;0.90;90.20
70762;DHT22;58360;0.000;0.000;2022-12-10T07:26:38;0.60;90.40
70762;DHT22;58360;0.000;0.000;2022-12-10T07:29:05;0.60;90.60
70762;DHT22;58360;0.000;0.000;2022-12-10T07:31:32;0.70;90.50
70762;DHT22;58360;0.000;0.000;2022-12-10T07:33:59;0.60;90.30
70762;DHT22;58360;0.000;0.000;2022-12-10T07:36:25;0.70;90.50
70762;DHT22;58360;0.000;0.000;2022-12-10T07:38:51;0.80;90.10
70762;DHT22;58360;0.000;0.000;2022-12-10T07:41:18;0.80;90.10
70762;DHT22;58360;0.000;0.000;2022-12-10T07:43:44;0.60;90.50
70762;DHT22;58360;0.000;0.000;2022-12-10T07:46:16;0.60;90.70
70762;DHT22;58360;0.000;0.000;2022-12-10T07:48:43;0.70;90.30
70762;DHT22;58360;0.000;0.000;2022-12-10T07:51:09;0.70;90.60
70762;DHT22;58360;0.000;0.000;2022-12-10T07:53:36;0.60;90.80
70762;DHT22;58360;0.000;0.000;2022-12-10T07:56:03;0.80;90.40
70762;DHT22;58360;0.000;0.000;2022-12-10T07:58:29;1.10;89.20
70762;DHT22;58360;0.000;0.000;2022-12-10T08:00:54;0.90;89.30
70762;DHT22;58360;0.000;0.000;2022-12-10T08:03:20;0.80;90.10
70762;DHT22;58360;0.000;0.000;2022-12-10T08:05:47;1.10;89.30
70762;DHT22;58360;0.000;0.000;2022-12-10T08:08:13;1.00;88.60
70762;DHT22;58360;0.000;0.000;2022-12-10T08:10:39;1.00;89.20
70762;DHT22;58360;0.000;0.000;2022-12-10T08:13:05;0.90;88.60
70762;DHT22;58360;0.000;0.000;2022-12-10T08:15:32;1.00;88.10
70762;DHT22;58360;0.000;0.000;2022-12-10T08:17:58;0.80;88.50
70762;DHT22;58360;0.000;0.000;2022-12-10T08:20:24;0.60;90.20
70762;DHT22;58360;0.000;0.000;2022-12-10T08:22:50;0.50;90.40
70762;DHT22;58360;0.000;0.000;2022-12-10T08:25:16;0.60;90.20
70762;DHT22;58360;0.000;0.000;2022-12-10T08:27:42;0.70;90.00
70762;DHT22;58360;0.000;0.000;2022-12-10T08:30:08;0.70;89.20
70762;DHT22;58360;0.000;0.000;2022-12-10T08:32:34;0.70;89.20
70762;DHT22;58360;0.000;0.000;2022-12-10T08:35:00;0.80;89.90
70762;DHT22;58360;0.000;0.000;2022-12-10T08:37:25;0.80;88.90
70762;DHT22;58360;0.000;0.000;2022-12-10T08:39:51;0.90;88.80
70762;DHT22;58360;0.000;0.000;2022-12-10T08:42:17;0.80;89.30
70762;DHT22;58360;0.000;0.000;2022-12-10T08:44:42;0.70;90.10
70762;DHT22;58360;0.000;0.000;2022-12-10T08:47:08;0.80;90.30
70762;DHT22;58360;0.000;0.000;2022-12-10T08:49:34;0.90;90.20
70762;DHT22;58360;0.000;0.000;2022-12-10T08:51:59;0.80;89.70
70762;DHT22;58360;0.000;0.000;2022-12-10T08:54:25;0.90;89.80
70762;DHT22;58360;0.000;0.000;2022-12-10T08:56:51;0.90;89.40
70762;DHT22;58360;0.000;0.000;2022-12-10T08:59:17;0.80;90.00
70762;DHT22;58360;0.000;0.000;2022-12-10T09:01:42;0.90;89.70
70762;DHT22;58360;0.000;0.000;2022-12-10T09:04:08;1.00;88.90
70762;DHT22;58360;0.000;0.000;2022-12-10T09:06:34;1.10;88.60
70762;DHT22;58360;0.000;0.000;2022-12-10T09:09:00;1.10;89.10
70762;DHT22;58360;0.000;0.000;2022-12-10T09:11:33;1.10;88.70
70762;DHT22;58360;0.000;0.000;2022-12-10T09:13:59;1.00;89.10
70762;DHT22;58360;0.000;0.000;2022-12-10T09:16:30;1.10;89.10
70762;DHT22;58360;0.000;0.000;2022-12-10T09:18:56;1.10;89.20
70762;DHT22;58360;0.000;0.000;2022-12-10T09:21:22;1.30;88.80
70762;DHT22;58360;0.000;0.000;2022-12-10T09:23:50;1.40;88.60
70762;DHT22;58360;0.000;0.000;2022-12-10T09:26:16;1.30;88.10
70762;DHT22;58360;0.000;0.000;2022-12-10T09:28:43;1.30;88.00
70762;DHT22;58360;0.000;0.000;2022-12-10T09:31:09;1.30;88.20
70762;DHT22;58360;0.000;0.000;2022-12-10T09:33:35;1.50;87.10
70762;DHT22;58360;0.000;0.000;2022-12-10T09:36:06;1.50;86.50
70762;DHT22;58360;0.000;0.000;2022-12-10T09:38:37;1.40;86.30
70762;DHT22;58360;0.000;0.000;2022-12-10T09:41:27;1.30;87.70
70762;DHT22;58360;0.000;0.000;2022-12-10T09:44:10;1.20;88.40
70762;DHT22;58360;0.000;0.000;2022-12-10T09:46:56;1.30;88.40
70762;DHT22;58360;0.000;0.000;2022-12-10T09:52:17;1.40;87.50
70762;DHT22;58360;0.000;0.000;2022-12-10T09:54:57;1.40;87.10
70762;DHT22;58360;0.000;0.000;2022-12-10T09:57:30;1.30;87.30
70762;DHT22;58360;0.000;0.000;2022-12-10T09:59:56;1.20;88.30
70762;DHT22;58360;0.000;0.000;2022-12-10T10:02:25;1.30;88.80
70762;DHT22;58360;0.000;0.000;2022-12-10T10:05:19;1.30;88.20
70762;DHT22;58360;0.000;0.000;2022-12-10T10:07:46;1.30;88.70
70762;DHT22;58360;0.000;0.000;2022-12-10T10:10:23;1.30;88.80
70762;DHT22;58360;0.000;0.000;2022-12-10T10:12:52;1.30;88.60
70762;DHT22;58360;0.000;0.000;2022-12-10T10:15:24;1.30;88.70
70762;DHT22;58360;0.000;0.000;2022-12-10T10:17:53;1.50;87.50
70762;DHT22;58360;0.000;0.000;2022-12-10T10:20:19;1.70;87.00
70762;DHT22;58360;0.000;0.000;2022-12-10T10:22:46;1.80;86.30
70762;DHT22;58360;0.000;0.000;2022-12-10T10:25:17;1.90;86.10
70762;DHT22;58360;0.000;0.000;2022-12-10T10:27:43;1.70;86.70
70762;DHT22;58360;0.000;0.000;2022-12-10T10:30:18;1.60;87.80
70762;DHT22;58360;0.000;0.000;2022-12-10T10:32:56;1.60;88.40
70762;DHT22;58360;0.000;0.000;2022-12-10T10:35:32;1.60;88.30
70762;DHT22;58360;0.000;0.000;2022-12-10T10:38:02;1.50;88.60
70762;DHT22;58360;0.000;0.000;2022-12-10T10:40:39;1.50;88.70
70762;DHT22;58360;0.000;0.000;2022-12-10T10:43:06;1.60;88.80
70762;DHT22;58360;0.000;0.000;2022-12-10T10:45:42;1.70;88.20
70762;DHT22;58360;0.000;0.000;2022-12-10T10:48:20;1.80;88.30
70762;DHT22;58360;0.000;0.000;2022-12-10T10:50:55;1.80;87.60
70762;DHT22;58360;0.000;0.000;2022-12-10T10:53:43;1.80;87.70
70762;DHT22;58360;0.000;0.000;2022-12-10T10:56:21;1.90;87.20
70762;DHT22;58360;0.000;0.000;2022-12-10T10:58:53;2.00;87.20
70762;DHT22;58360;0.000;0.000;2022-12-10T11:01:19;1.90;87.80
70762;DHT22;58360;0.000;0.000;2022-12-10T11:03:48;1.90;87.30
70762;DHT22;58360;0.000;0.000;2022-12-10T11:06:15;2.10;85.40
70762;DHT22;58360;0.000;0.000;2022-12-10T11:08:43;2.20;85.30
70762;DHT22;58360;0.000;0.000;2022-12-10T11:11:34;2.10;86.00
70762;DHT22;58360;0.000;0.000;2022-12-10T11:16:41;2.00;86.50
70762;DHT22;58360;0.000;0.000;2022-12-10T11:19:22;2.00;87.30
70762;DHT22;58360;0.000;0.000;2022-12-10T11:21:48;2.10;87.40
70762;DHT22;58360;0.000;0.000;2022-12-10T11:24:17;2.10;86.60
70762;DHT22;58360;0.000;0.000;2022-12-10T11:27:07;2.10;86.30
70762;DHT22;58360;0.000;0.000;2022-12-10T11:30:09;2.20;86.50
70762;DHT22;58360;0.000;0.000;2022-12-10T11:35:49;2.20;86.70
70762;DHT22;58360;0.000;0.000;2022-12-10T11:38:39;2.40;85.90
70762;DHT22;58360;0.000;0.000;2022-12-10T11:41:19;2.30;86.20
70762;DHT22;58360;0.000;0.000;2022-12-10T11:44:21;2.50;85.80
70762;DHT22;58360;0.000;0.000;2022-12-10T11:50:07;2.50;85.30
70762;DHT22;58360;0.000;0.000;2022-12-10T11:55:47;2.70;84.00
70762;DHT22;58360;0.000;0.000;2022-12-10T12:04:15;2.40;86.30
70762;DHT22;58360;0.000;0.000;2022-12-10T12:12:20;2.60;85.70
70762;DHT22;58360;0.000;0.000;2022-12-10T12:14:48;2.60;85.30
70762;DHT22;58360;0.000;0.000;2022-12-10T12:17:16;2.40;85.70
70762;DHT22;58360;0.000;0.000;2022-12-10T12:19:54;2.50;85.90
70762;DHT22;58360;0.000;0.000;2022-12-10T12:22:25;2.50;85.80
70762;DHT22;58360;0.000;0.000;2022-12-10T12:25:26;2.50;85.90
70762;DHT22;58360;0.000;0.000;2022-12-10T12:28:04;2.50;86.10
70762;DHT22;58360;0.000;0.000;2022-12-10T12:30:33;2.70;84.90
70762;DHT22;58360;0.000;0.000;2022-12-10T12:35:53;2.50;86.30
70762;DHT22;58360;0.000;0.000;2022-12-10T12:46:45;2.50;86.50
70762;DHT22;58360;0.000;0.000;2022-12-10T12:49:28;2.60;85.70
70762;DHT22;58360;0.000;0.000;2022-12-10T12:54:32;2.70;85.80
70762;DHT22;58360;0.000;0.000;2022-12-10T12:57:10;2.60;87.10
70762;DHT22;58360;0.000;0.000;2022-12-10T12:59:57;2.70;85.90
70762;DHT22;58360;0.000;0.000;2022-12-10T13:05:33;2.50;87.30
70762;DHT22;58360;0.000;0.000;2022-12-10T13:08:25;2.50;87.50
70762;DHT22;58360;0.000;0.000;2022-12-10T13:11:00;2.50;88.00
70762;DHT22;58360;0.000;0.000;2022-12-10T13:14:02;2.60;87.70
70762;DHT22;58360;0.000;0.000;2022-12-10T13:29:57;2.80;86.40
70762;DHT22;58360;0.000;0.000;2022-12-10T13:37:55;3.10;84.80
70762;DHT22;58360;0.000;0.000;2022-12-10T13:40:26;3.10;85.00
70762;DHT22;58360;0.000;0.000;2022-12-10T13:49:12;3.00;85.10
70762;DHT22;58360;0.000;0.000;2022-12-10T13:54:18;3.00;85.60
70762;DHT22;58360;0.000;0.000;2022-12-10T13:57:01;3.00;86.00
70762;DHT22;58360;0.000;0.000;2022-12-10T14:00:01;3.10;85.40
70762;DHT22;58360;0.000;0.000;2022-12-10T14:07:39;2.80;87.40
70762;DHT22;58360;0.000;0.000;2022-12-10T14:10:14;2.80;87.40
70762;DHT22;58360;0.000;0.000;2022-12-10T14:12:42;2.90;86.30
70762;DHT22;58360;0.000;0.000;2022-12-10T14:15:29;3.00;85.90
70762;DHT22;58360;0.000;0.000;2022-12-10T14:18:02;2.90;85.70
70762;DHT22;58360;0.000;0.000;2022-12-10T14:20:31;3.00;85.20
70762;DHT22;58360;0.000;0.000;2022-12-10T14:23:03;3.10;85.10
70762;DHT22;58360;0.000;0.000;2022-12-10T14:25:48;2.90;86.30
70762;DHT22;58360;0.000;0.000;2022-12-10T14:28:16;2.80;86.70
70762;DHT22;58360;0.000;0.000;2022-12-10T14:30:44;2.80;87.00
70762;DHT22;58360;0.000;0.000;2022-12-10T14:33:14;2.90;86.60
70762;DHT22;58360;0.000;0.000;2022-12-10T14:35:41;3.10;85.50
70762;DHT22;58360;0.000;0.000;2022-12-10T14:38:30;3.10;85.00
70762;DHT22;58360;0.000;0.000;2022-12-10T14:40:58;3.00;85.70
70762;DHT22;58360;0.000;0.000;2022-12-10T14:43:36;2.80;87.10
70762;DHT22;58360;0.000;0.000;2022-12-10T14:46:04;3.00;86.30
70762;DHT22;58360;0.000;0.000;2022-12-10T14:48:35;2.90;86.20
70762;DHT22;58360;0.000;0.000;2022-12-10T14:51:06;3.00;86.50
70762;DHT22;58360;0.000;0.000;2022-12-10T14:53:35;3.10;86.60
70762;DHT22;58360;0.000;0.000;2022-12-10T14:56:05;3.10;85.90
70762;DHT22;58360;0.000;0.000;2022-12-10T14:58:38;3.10;85.50
70762;DHT22;58360;0.000;0.000;2022-12-10T15:01:05;3.10;85.40
70762;DHT22;58360;0.000;0.000;2022-12-10T15:03:41;3.00;85.90
70762;DHT22;58360;0.000;0.000;2022-12-10T15:06:10;3.00;85.80
70762;DHT22;58360;0.000;0.000;2022-12-10T15:08:36;2.90;86.50
70762;DHT22;58360;0.000;0.000;2022-12-10T15:11:02;3.10;86.30
70762;DHT22;58360;0.000;0.000;2022-12-10T15:13:39;3.10;86.20
70762;DHT22;58360;0.000;0.000;2022-12-10T15:16:06;3.00;86.40
70762;DHT22;58360;0.000;0.000;2022-12-10T15:18:40;2.90;87.20
70762;DHT22;58360;0.000;0.000;2022-12-10T15:21:19;2.90;86.70
70762;DHT22;58360;0.000;0.000;2022-12-10T15:23:46;2.80;87.40
70762;DHT22;58360;0.000;0.000;2022-12-10T15:26:22;2.90;87.30
70762;DHT22;58360;0.000;0.000;2022-12-10T15:28:51;3.00;86.90
70762;DHT22;58360;0.000;0.000;2022-12-10T15:34:00;3.00;86.80
70762;DHT22;58360;0.000;0.000;2022-12-10T15:36:42;2.90;87.30
70762;DHT22;58360;0.000;0.000;2022-12-10T15:41:53;2.70;88.50
70762;DHT22;58360;0.000;0.000;2022-12-10T15:44:37;2.70;88.10
70762;DHT22;58360;0.000;0.000;2022-12-10T15:47:18;2.80;87.80
70762;DHT22;58360;0.000;0.000;2022-12-10T15:49:45;2.90;87.50
70762;DHT22;58360;0.000;0.000;2022-12-10T15:52:16;2.80;88.50
70762;DHT22;58360;0.000;0.000;2022-12-10T15:54:44;2.80;88.50
70762;DHT22;58360;0.000;0.000;2022-12-10T15:57:25;2.80;88.70
70762;DHT22;58360;0.000;0.000;2022-12-10T15:59:53;2.80;88.90
70762;DHT22;58360;0.000;0.000;2022-12-10T16:04:51;2.90;88.70
70762;DHT22;58360;0.000;0.000;2022-12-10T16:07:17;2.90;88.60
70762;DHT22;58360;0.000;0.000;2022-12-10T16:09:44;2.90;88.70
70762;DHT22;58360;0.000;0.000;2022-12-10T16:12:12;2.90;88.30
70762;DHT22;58360;0.000;0.000;2022-12-10T16:14:40;2.90;88.90
70762;DHT22;58360;0.000;0.000;2022-12-10T16:17:09;2.80;88.90
70762;DHT22;58360;0.000;0.000;2022-12-10T16:19:36;2.90;88.70
70762;DHT22;58360;0.000;0.000;2022-12-10T16:22:02;2.80;89.50
70762;DHT22;58360;0.000;0.000;2022-12-10T16:24:28;2.90;89.20
70762;DHT22;58360;0.000;0.000;2022-12-10T16:26:54;2.90;89.00
70762;DHT22;58360;0.000;0.000;2022-12-10T16:29:19;2.90;89.30
70762;DHT22;58360;0.000;0.000;2022-12-10T16:31:46;2.90;89.20
70762;DHT22;58360;0.000;0.000;2022-12-10T16:34:12;3.00;88.40
70762;DHT22;58360;0.000;0.000;2022-12-10T16:36:38;2.90;88.80
70762;DHT22;58360;0.000;0.000;2022-12-10T16:39:03;2.90;89.10
70762;DHT22;58360;0.000;0.000;2022-12-10T16:41:30;2.90;89.90
70762;DHT22;58360;0.000;0.000;2022-12-10T16:43:56;2.80;89.80
70762;DHT22;58360;0.000;0.000;2022-12-10T16:46:22;2.80;90.00
70762;DHT22;58360;0.000;0.000;2022-12-10T16:48:47;2.80;90.10
70762;DHT22;58360;0.000;0.000;2022-12-10T16:51:37;2.80;90.30
70762;DHT22;58360;0.000;0.000;2022-12-10T16:54:01;2.80;90.10
70762;DHT22;58360;0.000;0.000;2022-12-10T16:56:29;2.80;90.10
70762;DHT22;58360;0.000;0.000;2022-12-10T16:58:54;2.80;90.20
70762;DHT22;58360;0.000;0.000;2022-12-10T17:01:26;2.80;90.10
70762;DHT22;58360;0.000;0.000;2022-12-10T17:03:56;2.80;89.90
70762;DHT22;58360;0.000;0.000;2022-12-10T17:06:24;2.80;90.00
70762;DHT22;58360;0.000;0.000;2022-12-10T17:08:50;2.90;90.10
70762;DHT22;58360;0.000;0.000;2022-12-10T17:11:27;2.90;90.00
70762;DHT22;58360;0.000;0.000;2022-12-10T17:14:28;3.00;89.50
70762;DHT22;58360;0.000;0.000;2022-12-10T17:16:57;3.00;89.90
70762;DHT22;58360;0.000;0.000;2022-12-10T17:19:27;2.90;90.00
70762;DHT22;58360;0.000;0.000;2022-12-10T17:21:53;2.80;90.20
70762;DHT22;58360;0.000;0.000;2022-12-10T17:24:18;2.90;90.20
70762;DHT22;58360;0.000;0.000;2022-12-10T17:26:46;3.00;89.80
70762;DHT22;58360;0.000;0.000;2022-12-10T17:29:30;3.10;88.90
70762;DHT22;58360;0.000;0.000;2022-12-10T17:31:57;3.00;89.00
70762;DHT22;58360;0.000;0.000;2022-12-10T17:34:22;3.00;89.20
70762;DHT22;58360;0.000;0.000;2022-12-10T17:36:50;3.00;89.50
70762;DHT22;58360;0.000;0.000;2022-12-10T17:39:18;3.10;88.60
70762;DHT22;58360;0.000;0.000;2022-12-10T17:41:44;2.90;89.30
70762;DHT22;58360;0.000;0.000;2022-12-10T17:44:10;3.20;88.70
70762;DHT22;58360;0.000;0.000;2022-12-10T17:46:37;3.20;88.30
70762;DHT22;58360;0.000;0.000;2022-12-10T17:49:03;3.10;88.30
70762;DHT22;58360;0.000;0.000;2022-12-10T17:51:29;3.20;88.20
70762;DHT22;58360;0.000;0.000;2022-12-10T17:53:55;3.20;87.30
70762;DHT22;58360;0.000;0.000;2022-12-10T17:56:23;3.20;87.60
70762;DHT22;58360;0.000;0.000;2022-12-10T17:58:51;3.10;88.40
70762;DHT22;58360;0.000;0.000;2022-12-10T18:01:18;3.00;89.20
70762;DHT22;58360;0.000;0.000;2022-12-10T18:03:45;3.00;89.00